HAZ2175 ZSHC-ZSCN
Flight info
| Callsign | HAZ2175 |
|---|---|
| Flight time | 1h 15m |
| Altitude | 25600 |
| Route | NIVIK5E NIVIK W135 GOSRO W546 OREVO W164 VILID V65 IKUBA W50 XSH W105 LAPEN LAP91A |
| Aircraft | A320/M-SDE3FGHIRWY/LB1 |
Departure
| Time | 2026-04-16 03:34 |
|---|---|
| Airport | Hangzhou Xiaoshan International Airport (ZSHC) |
Arrival
| Time | 2026-04-16 04:49 |
|---|---|
| Airport | Nanchang Changbei International Airport (ZSCN) |
| Time | Latitude | Longitude | Altitude | Speed | Heading |
|---|---|---|---|---|---|
| 2026-04-16 03:22 | 30.23490 | 120.40896 | 32 ft | 0 kts | 153° |
| 2026-04-16 03:28 | 30.23478 | 120.40904 | 30 ft | 7 kts | 153° |
| 2026-04-16 03:28 | 30.23461 | 120.40922 | 32 ft | 0 kts | 113° |
| 2026-04-16 03:28 | 30.23461 | 120.40923 | 32 ft | 1 kts | 110° |
| 2026-04-16 03:28 | 30.23477 | 120.40977 | 32 ft | 11 kts | 45° |
| 2026-04-16 03:29 | 30.23514 | 120.40980 | 31 ft | 0 kts | 339° |
| 2026-04-16 03:30 | 30.23526 | 120.40973 | 32 ft | 7 kts | 334° |
| 2026-04-16 03:30 | 30.23619 | 120.40958 | 32 ft | 17 kts | 351° |
| 2026-04-16 03:31 | 30.23750 | 120.40886 | 33 ft | 21 kts | 335° |
| 2026-04-16 03:31 | 30.23848 | 120.40887 | 34 ft | 11 kts | 70° |
| 2026-04-16 03:31 | 30.23862 | 120.40924 | 34 ft | 0 kts | 64° |
| 2026-04-16 03:31 | 30.23866 | 120.40933 | 34 ft | 13 kts | 64° |
| 2026-04-16 03:32 | 30.24031 | 120.41305 | 32 ft | 87 kts | 63° |
| 2026-04-16 03:32 | 30.24396 | 120.42130 | 32 ft | 142 kts | 63° |
| 2026-04-16 03:34 | 30.28536 | 120.51493 | 3374 ft | 221 kts | 66° |
| 2026-04-16 03:34 | 30.29314 | 120.53040 | 3943 ft | 226 kts | 51° |
| 2026-04-16 03:34 | 30.30591 | 120.54111 | 4504 ft | 232 kts | 20° |
| 2026-04-16 03:34 | 30.32182 | 120.54297 | 5063 ft | 233 kts | 348° |
| 2026-04-16 03:35 | 30.33629 | 120.53512 | 5622 ft | 231 kts | 316° |
| 2026-04-16 03:35 | 30.34529 | 120.52015 | 6216 ft | 226 kts | 286° |
| 2026-04-16 03:35 | 30.34756 | 120.50186 | 6547 ft | 241 kts | 270° |
| 2026-04-16 03:35 | 30.34774 | 120.48207 | 7120 ft | 249 kts | 263° |
| 2026-04-16 03:36 | 30.34342 | 120.46271 | 7882 ft | 251 kts | 244° |
| 2026-04-16 03:36 | 30.33535 | 120.44478 | 8690 ft | 252 kts | 242° |
| 2026-04-16 03:36 | 30.32719 | 120.42668 | 9476 ft | 255 kts | 242° |
| 2026-04-16 03:36 | 30.31906 | 120.40839 | 10228 ft | 257 kts | 243° |
| 2026-04-16 03:37 | 30.31088 | 120.38993 | 10942 ft | 259 kts | 243° |
| 2026-04-16 03:37 | 30.30263 | 120.37135 | 11634 ft | 261 kts | 243° |
| 2026-04-16 03:37 | 30.29431 | 120.35264 | 12332 ft | 263 kts | 243° |
| 2026-04-16 03:37 | 30.28596 | 120.33376 | 13019 ft | 265 kts | 243° |
| 2026-04-16 03:38 | 30.27752 | 120.31471 | 13706 ft | 267 kts | 243° |
| 2026-04-16 03:38 | 30.27001 | 120.29502 | 14299 ft | 269 kts | 257° |
| 2026-04-16 03:38 | 30.27034 | 120.27343 | 14878 ft | 275 kts | 285° |
| 2026-04-16 03:38 | 30.28036 | 120.25448 | 15459 ft | 285 kts | 314° |
| 2026-04-16 03:39 | 30.29740 | 120.24214 | 16040 ft | 293 kts | 328° |
| 2026-04-16 03:39 | 30.31560 | 120.23138 | 16640 ft | 295 kts | 328° |
| 2026-04-16 03:39 | 30.33415 | 120.22070 | 17073 ft | 305 kts | 329° |
| 2026-04-16 03:39 | 30.35411 | 120.21021 | 17202 ft | 325 kts | 331° |
| 2026-04-16 03:40 | 30.37548 | 120.19961 | 17332 ft | 343 kts | 332° |
| 2026-04-16 03:40 | 30.39804 | 120.18862 | 17462 ft | 360 kts | 332° |
| 2026-04-16 03:40 | 30.42162 | 120.17711 | 17591 ft | 376 kts | 332° |
| 2026-04-16 03:40 | 30.44615 | 120.16502 | 17721 ft | 390 kts | 332° |
| 2026-04-16 03:41 | 30.47151 | 120.15230 | 17872 ft | 402 kts | 330° |
| 2026-04-16 03:41 | 30.49590 | 120.13597 | 18068 ft | 407 kts | 321° |
| 2026-04-16 03:41 | 30.51890 | 120.11655 | 18432 ft | 411 kts | 320° |
| 2026-04-16 03:41 | 30.54204 | 120.09694 | 18844 ft | 413 kts | 320° |
| 2026-04-16 03:42 | 30.56533 | 120.07725 | 19263 ft | 415 kts | 320° |
| 2026-04-16 03:42 | 30.58844 | 120.05778 | 19684 ft | 417 kts | 320° |
| 2026-04-16 03:42 | 30.61193 | 120.03796 | 20110 ft | 419 kts | 320° |
| 2026-04-16 03:42 | 30.63550 | 120.01802 | 20535 ft | 420 kts | 319° |
| 2026-04-16 03:43 | 30.65917 | 119.99795 | 20945 ft | 422 kts | 319° |
| 2026-04-16 03:43 | 30.68295 | 119.97779 | 21344 ft | 424 kts | 319° |
| 2026-04-16 03:43 | 30.70684 | 119.95751 | 21733 ft | 426 kts | 319° |
| 2026-04-16 03:43 | 30.73078 | 119.93718 | 22109 ft | 428 kts | 319° |
| 2026-04-16 03:44 | 30.75486 | 119.91672 | 22476 ft | 429 kts | 319° |
| 2026-04-16 03:44 | 30.77899 | 119.89616 | 22856 ft | 431 kts | 319° |
| 2026-04-16 03:44 | 30.80316 | 119.87547 | 23197 ft | 433 kts | 319° |
| 2026-04-16 03:44 | 30.82744 | 119.85459 | 23530 ft | 435 kts | 319° |
| 2026-04-16 03:45 | 30.85176 | 119.83364 | 23808 ft | 436 kts | 319° |
| 2026-04-16 03:45 | 30.87623 | 119.81253 | 24097 ft | 438 kts | 319° |
| 2026-04-16 03:45 | 30.90076 | 119.79140 | 24382 ft | 440 kts | 319° |
| 2026-04-16 03:45 | 30.92543 | 119.77017 | 24659 ft | 442 kts | 319° |
| 2026-04-16 03:46 | 30.95018 | 119.74886 | 24933 ft | 443 kts | 318° |
| 2026-04-16 03:46 | 30.97498 | 119.72747 | 25193 ft | 445 kts | 318° |
| 2026-04-16 03:46 | 30.99988 | 119.70600 | 25452 ft | 446 kts | 318° |
| 2026-04-16 03:46 | 31.01643 | 119.69173 | 25534 ft | 447 kts | 318° |
| 2026-04-16 03:47 | 31.05009 | 119.66270 | 25576 ft | 452 kts | 318° |
| 2026-04-16 03:47 | 31.06682 | 119.64825 | 25575 ft | 452 kts | 318° |
| 2026-04-16 03:47 | 31.09213 | 119.62639 | 25581 ft | 454 kts | 318° |
| 2026-04-16 03:47 | 31.11751 | 119.60446 | 25576 ft | 454 kts | 318° |
| 2026-04-16 03:48 | 31.14287 | 119.58250 | 25570 ft | 454 kts | 318° |
| 2026-04-16 03:48 | 31.16822 | 119.56055 | 25572 ft | 453 kts | 318° |
| 2026-04-16 03:48 | 31.19356 | 119.53861 | 25577 ft | 454 kts | 318° |
| 2026-04-16 03:48 | 31.21891 | 119.51663 | 25571 ft | 454 kts | 318° |
| 2026-04-16 03:49 | 31.24429 | 119.49460 | 25567 ft | 455 kts | 318° |
| 2026-04-16 03:49 | 31.26970 | 119.47257 | 25568 ft | 455 kts | 318° |
| 2026-04-16 03:49 | 31.29509 | 119.45054 | 25570 ft | 455 kts | 318° |
| 2026-04-16 03:49 | 31.32051 | 119.42843 | 25572 ft | 455 kts | 318° |
| 2026-04-16 03:50 | 31.34586 | 119.40634 | 25572 ft | 455 kts | 318° |
| 2026-04-16 03:50 | 31.37118 | 119.38425 | 25572 ft | 454 kts | 318° |
| 2026-04-16 03:50 | 31.39656 | 119.36214 | 25590 ft | 455 kts | 318° |
| 2026-04-16 03:50 | 31.42192 | 119.34006 | 25587 ft | 455 kts | 318° |
| 2026-04-16 03:51 | 31.44732 | 119.31798 | 25581 ft | 454 kts | 318° |
| 2026-04-16 03:51 | 31.47266 | 119.29592 | 25575 ft | 454 kts | 318° |
| 2026-04-16 03:51 | 31.49798 | 119.27381 | 25572 ft | 454 kts | 318° |
| 2026-04-16 03:51 | 31.52330 | 119.25165 | 25568 ft | 454 kts | 318° |
| 2026-04-16 03:52 | 31.54831 | 119.22912 | 25573 ft | 451 kts | 314° |
| 2026-04-16 03:52 | 31.57007 | 119.20314 | 25570 ft | 444 kts | 304° |
| 2026-04-16 03:52 | 31.58769 | 119.17368 | 25565 ft | 439 kts | 297° |
| 2026-04-16 03:52 | 31.60211 | 119.14229 | 25569 ft | 436 kts | 292° |
| 2026-04-16 03:53 | 31.61500 | 119.11007 | 25559 ft | 436 kts | 291° |
| 2026-04-16 03:53 | 31.62769 | 119.07779 | 25554 ft | 436 kts | 291° |
| 2026-04-16 03:53 | 31.64097 | 119.04575 | 25562 ft | 437 kts | 293° |
| 2026-04-16 03:53 | 31.65500 | 119.01413 | 25559 ft | 437 kts | 293° |
| 2026-04-16 03:54 | 31.66711 | 118.98160 | 25562 ft | 433 kts | 286° |
| 2026-04-16 03:54 | 31.67468 | 118.94759 | 25574 ft | 430 kts | 277° |
| 2026-04-16 03:54 | 31.67683 | 118.91274 | 25562 ft | 427 kts | 267° |
| 2026-04-16 03:54 | 31.67529 | 118.87798 | 25560 ft | 427 kts | 266° |
| 2026-04-16 03:55 | 31.67364 | 118.84315 | 25558 ft | 427 kts | 266° |
| 2026-04-16 03:55 | 31.67205 | 118.80883 | 25558 ft | 427 kts | 266° |
| 2026-04-16 03:55 | 31.67047 | 118.77405 | 25557 ft | 427 kts | 266° |
| 2026-04-16 03:55 | 31.66893 | 118.73923 | 25556 ft | 427 kts | 266° |
| 2026-04-16 03:56 | 31.66755 | 118.70444 | 25552 ft | 427 kts | 267° |
| 2026-04-16 03:56 | 31.66695 | 118.66956 | 25552 ft | 427 kts | 268° |
| 2026-04-16 03:56 | 31.66696 | 118.63465 | 25560 ft | 428 kts | 269° |
| 2026-04-16 03:56 | 31.66727 | 118.59974 | 25557 ft | 428 kts | 269° |
| 2026-04-16 03:57 | 31.66761 | 118.56484 | 25554 ft | 428 kts | 269° |
| 2026-04-16 03:57 | 31.66784 | 118.52989 | 25553 ft | 428 kts | 269° |
| 2026-04-16 03:57 | 31.66791 | 118.49500 | 25551 ft | 428 kts | 269° |
| 2026-04-16 03:57 | 31.66786 | 118.46007 | 25549 ft | 428 kts | 269° |
| 2026-04-16 03:58 | 31.66773 | 118.42517 | 25546 ft | 428 kts | 268° |
| 2026-04-16 03:58 | 31.66726 | 118.31479 | 25557 ft | 428 kts | 268° |
| 2026-04-16 03:59 | 31.66715 | 118.27991 | 25555 ft | 427 kts | 268° |
| 2026-04-16 03:59 | 31.66703 | 118.24502 | 25553 ft | 427 kts | 268° |
| 2026-04-16 03:59 | 31.66688 | 118.21016 | 25537 ft | 427 kts | 268° |
| 2026-04-16 03:59 | 31.66648 | 118.17531 | 25537 ft | 427 kts | 265° |
| 2026-04-16 04:00 | 31.66348 | 118.14073 | 25539 ft | 426 kts | 263° |
| 2026-04-16 04:00 | 31.66016 | 118.10617 | 25541 ft | 426 kts | 263° |
| 2026-04-16 04:00 | 31.65684 | 118.07160 | 25546 ft | 426 kts | 263° |
| 2026-04-16 04:00 | 31.65354 | 118.03702 | 25552 ft | 426 kts | 263° |
| 2026-04-16 04:01 | 31.65022 | 118.00249 | 25553 ft | 426 kts | 263° |
| 2026-04-16 04:01 | 31.64687 | 117.96788 | 25551 ft | 426 kts | 263° |
| 2026-04-16 04:01 | 31.64351 | 117.93338 | 25552 ft | 426 kts | 263° |
| 2026-04-16 04:01 | 31.64013 | 117.89886 | 25549 ft | 425 kts | 263° |
| 2026-04-16 04:02 | 31.63677 | 117.86439 | 25545 ft | 425 kts | 263° |
| 2026-04-16 04:02 | 31.63342 | 117.82996 | 25548 ft | 425 kts | 263° |
| 2026-04-16 04:02 | 31.63005 | 117.79544 | 25546 ft | 425 kts | 263° |
| 2026-04-16 04:02 | 31.62672 | 117.76098 | 25546 ft | 425 kts | 263° |
| 2026-04-16 04:03 | 31.62338 | 117.72645 | 25546 ft | 425 kts | 263° |
| 2026-04-16 04:03 | 31.62001 | 117.69200 | 25547 ft | 425 kts | 262° |
| 2026-04-16 04:03 | 31.61658 | 117.65752 | 25547 ft | 425 kts | 262° |
| 2026-04-16 04:04 | 31.60955 | 117.58720 | 25546 ft | 425 kts | 262° |
| 2026-04-16 04:04 | 31.60444 | 117.55306 | 25547 ft | 425 kts | 258° |
| 2026-04-16 04:04 | 31.59837 | 117.51916 | 25546 ft | 425 kts | 258° |
| 2026-04-16 04:04 | 31.59437 | 117.49667 | 25550 ft | 426 kts | 258° |
| 2026-04-16 04:05 | 31.58641 | 117.45161 | 25541 ft | 426 kts | 258° |
| 2026-04-16 04:05 | 31.58040 | 117.41765 | 25541 ft | 425 kts | 258° |
| 2026-04-16 04:05 | 31.57436 | 117.38372 | 25543 ft | 425 kts | 258° |
| 2026-04-16 04:05 | 31.56829 | 117.34982 | 25544 ft | 425 kts | 258° |
| 2026-04-16 04:06 | 31.56212 | 117.31585 | 25550 ft | 425 kts | 256° |
| 2026-04-16 04:06 | 31.55282 | 117.28300 | 25546 ft | 425 kts | 247° |
| 2026-04-16 04:06 | 31.54388 | 117.26202 | 25543 ft | 426 kts | 242° |
| 2026-04-16 04:06 | 31.52891 | 117.23206 | 25546 ft | 426 kts | 241° |
| 2026-04-16 04:07 | 31.51393 | 117.20208 | 25544 ft | 426 kts | 241° |
| 2026-04-16 04:07 | 31.48404 | 117.14204 | 25547 ft | 427 kts | 241° |
| 2026-04-16 04:07 | 31.46907 | 117.11200 | 25546 ft | 427 kts | 241° |
| 2026-04-16 04:08 | 31.45412 | 117.08201 | 25550 ft | 427 kts | 241° |
| 2026-04-16 04:08 | 31.43930 | 117.05238 | 25535 ft | 427 kts | 241° |
| 2026-04-16 04:08 | 31.42428 | 117.02240 | 25535 ft | 427 kts | 241° |
| 2026-04-16 04:08 | 31.40925 | 116.99237 | 25539 ft | 427 kts | 241° |
| 2026-04-16 04:09 | 31.39422 | 116.96232 | 25541 ft | 428 kts | 241° |
| 2026-04-16 04:09 | 31.37919 | 116.93228 | 25542 ft | 428 kts | 241° |
| 2026-04-16 04:09 | 31.36417 | 116.90225 | 25552 ft | 428 kts | 241° |
| 2026-04-16 04:09 | 31.34912 | 116.87220 | 25555 ft | 428 kts | 241° |
| 2026-04-16 04:10 | 31.33403 | 116.84214 | 25561 ft | 428 kts | 241° |
| 2026-04-16 04:10 | 31.31895 | 116.81215 | 25560 ft | 428 kts | 241° |
| 2026-04-16 04:10 | 31.30386 | 116.78218 | 25559 ft | 428 kts | 241° |
| 2026-04-16 04:10 | 31.28877 | 116.75223 | 25561 ft | 427 kts | 241° |
| 2026-04-16 04:11 | 31.27370 | 116.72228 | 25568 ft | 427 kts | 241° |
| 2026-04-16 04:11 | 31.25863 | 116.69233 | 25544 ft | 427 kts | 241° |
| 2026-04-16 04:11 | 31.24358 | 116.66243 | 25555 ft | 427 kts | 241° |
| 2026-04-16 04:11 | 31.22849 | 116.63255 | 25551 ft | 427 kts | 241° |
| 2026-04-16 04:12 | 31.21340 | 116.60269 | 25547 ft | 427 kts | 241° |
| 2026-04-16 04:12 | 31.19830 | 116.57282 | 25549 ft | 427 kts | 241° |
| 2026-04-16 04:12 | 31.18318 | 116.54294 | 25566 ft | 427 kts | 241° |
| 2026-04-16 04:12 | 31.16808 | 116.51313 | 25566 ft | 427 kts | 241° |
| 2026-04-16 04:13 | 31.15297 | 116.48331 | 25566 ft | 426 kts | 241° |
| 2026-04-16 04:13 | 31.13789 | 116.45357 | 25567 ft | 426 kts | 241° |
| 2026-04-16 04:13 | 31.12278 | 116.42377 | 25570 ft | 426 kts | 241° |
| 2026-04-16 04:13 | 31.10771 | 116.39407 | 25571 ft | 425 kts | 241° |
| 2026-04-16 04:14 | 31.09284 | 116.36482 | 25568 ft | 425 kts | 240° |
| 2026-04-16 04:14 | 31.07772 | 116.33513 | 25570 ft | 425 kts | 240° |
| 2026-04-16 04:14 | 31.06262 | 116.30545 | 25570 ft | 425 kts | 241° |
| 2026-04-16 04:14 | 31.04753 | 116.27578 | 25569 ft | 426 kts | 240° |
| 2026-04-16 04:15 | 31.03243 | 116.24614 | 25585 ft | 425 kts | 241° |
| 2026-04-16 04:15 | 31.01735 | 116.21656 | 25589 ft | 424 kts | 241° |
| 2026-04-16 04:15 | 31.00227 | 116.18703 | 25586 ft | 423 kts | 241° |
| 2026-04-16 04:15 | 30.98722 | 116.15759 | 25586 ft | 423 kts | 241° |
| 2026-04-16 04:16 | 30.97217 | 116.12819 | 25589 ft | 422 kts | 241° |
| 2026-04-16 04:16 | 30.95710 | 116.09879 | 25578 ft | 422 kts | 241° |
| 2026-04-16 04:16 | 30.94209 | 116.06949 | 25584 ft | 422 kts | 241° |
| 2026-04-16 04:16 | 30.92706 | 116.04016 | 25571 ft | 421 kts | 241° |
| 2026-04-16 04:17 | 30.91206 | 116.01087 | 25558 ft | 421 kts | 241° |
| 2026-04-16 04:17 | 30.89701 | 115.98151 | 25551 ft | 422 kts | 241° |
| 2026-04-16 04:17 | 30.88196 | 115.95221 | 25555 ft | 422 kts | 240° |
| 2026-04-16 04:17 | 30.86690 | 115.92297 | 25572 ft | 420 kts | 241° |
| 2026-04-16 04:18 | 30.85118 | 115.89430 | 25580 ft | 421 kts | 236° |
| 2026-04-16 04:18 | 30.83337 | 115.86730 | 25580 ft | 420 kts | 235° |
| 2026-04-16 04:18 | 30.81555 | 115.84040 | 25582 ft | 419 kts | 235° |
| 2026-04-16 04:18 | 30.79781 | 115.81355 | 25582 ft | 419 kts | 235° |
| 2026-04-16 04:19 | 30.78033 | 115.78703 | 25581 ft | 418 kts | 235° |
| 2026-04-16 04:19 | 30.76264 | 115.76013 | 25580 ft | 418 kts | 235° |
| 2026-04-16 04:19 | 30.74498 | 115.73328 | 25578 ft | 418 kts | 235° |
| 2026-04-16 04:19 | 30.72732 | 115.70645 | 25561 ft | 418 kts | 235° |
| 2026-04-16 04:20 | 30.70967 | 115.67963 | 25559 ft | 418 kts | 235° |
| 2026-04-16 04:20 | 30.69198 | 115.65283 | 25559 ft | 418 kts | 235° |
| 2026-04-16 04:20 | 30.67427 | 115.62611 | 25571 ft | 417 kts | 234° |
| 2026-04-16 04:20 | 30.65655 | 115.59945 | 25576 ft | 416 kts | 234° |
| 2026-04-16 04:21 | 30.63888 | 115.57281 | 25582 ft | 416 kts | 235° |
| 2026-04-16 04:21 | 30.62126 | 115.54619 | 25583 ft | 415 kts | 235° |
| 2026-04-16 04:21 | 30.60366 | 115.51964 | 25583 ft | 415 kts | 235° |
| 2026-04-16 04:21 | 30.58607 | 115.49308 | 25584 ft | 415 kts | 235° |
| 2026-04-16 04:22 | 30.56848 | 115.46658 | 25586 ft | 415 kts | 235° |
| 2026-04-16 04:22 | 30.55092 | 115.44008 | 25580 ft | 414 kts | 235° |
| 2026-04-16 04:22 | 30.53340 | 115.41362 | 25559 ft | 413 kts | 234° |
| 2026-04-16 04:22 | 30.51586 | 115.38724 | 25551 ft | 413 kts | 234° |
| 2026-04-16 04:23 | 30.49826 | 115.36086 | 25548 ft | 414 kts | 234° |
| 2026-04-16 04:23 | 30.48023 | 115.33481 | 25546 ft | 415 kts | 229° |
| 2026-04-16 04:23 | 30.45797 | 115.31328 | 25559 ft | 421 kts | 216° |
| 2026-04-16 04:23 | 30.43132 | 115.29879 | 25553 ft | 430 kts | 202° |
| 2026-04-16 04:24 | 30.40145 | 115.29307 | 25550 ft | 443 kts | 187° |
| 2026-04-16 04:24 | 30.37045 | 115.29752 | 25549 ft | 459 kts | 171° |
| 2026-04-16 04:24 | 30.34051 | 115.30996 | 25547 ft | 465 kts | 167° |
| 2026-04-16 04:24 | 30.31030 | 115.32341 | 25549 ft | 465 kts | 166° |
| 2026-04-16 04:25 | 30.28012 | 115.33690 | 25521 ft | 465 kts | 166° |
| 2026-04-16 04:25 | 30.24993 | 115.35038 | 25525 ft | 466 kts | 166° |
| 2026-04-16 04:25 | 30.21966 | 115.36384 | 25529 ft | 466 kts | 166° |
| 2026-04-16 04:25 | 30.18935 | 115.37720 | 25533 ft | 467 kts | 166° |
| 2026-04-16 04:26 | 30.15898 | 115.39051 | 25532 ft | 467 kts | 166° |
| 2026-04-16 04:26 | 30.12858 | 115.40379 | 25534 ft | 467 kts | 166° |
| 2026-04-16 04:26 | 30.09818 | 115.41707 | 25538 ft | 468 kts | 166° |
| 2026-04-16 04:26 | 30.06776 | 115.43041 | 25541 ft | 468 kts | 166° |
| 2026-04-16 04:27 | 30.03734 | 115.44376 | 25541 ft | 468 kts | 166° |
| 2026-04-16 04:27 | 30.00692 | 115.45708 | 25530 ft | 468 kts | 166° |
| 2026-04-16 04:27 | 29.97645 | 115.47041 | 25442 ft | 469 kts | 166° |
| 2026-04-16 04:27 | 29.94593 | 115.48376 | 24950 ft | 470 kts | 166° |
| 2026-04-16 04:28 | 29.91534 | 115.49714 | 24496 ft | 471 kts | 166° |
| 2026-04-16 04:28 | 29.88464 | 115.51055 | 24044 ft | 473 kts | 166° |
| 2026-04-16 04:28 | 29.85376 | 115.52404 | 23605 ft | 475 kts | 166° |
| 2026-04-16 04:28 | 29.82279 | 115.53758 | 23092 ft | 477 kts | 166° |
| 2026-04-16 04:29 | 29.79168 | 115.55115 | 22571 ft | 479 kts | 165° |
| 2026-04-16 04:29 | 29.76057 | 115.56473 | 22058 ft | 477 kts | 165° |
| 2026-04-16 04:29 | 29.72966 | 115.57825 | 21532 ft | 474 kts | 164° |
| 2026-04-16 04:29 | 29.69891 | 115.59173 | 21038 ft | 472 kts | 164° |
| 2026-04-16 04:30 | 29.66830 | 115.60518 | 20549 ft | 469 kts | 164° |
| 2026-04-16 04:30 | 29.63830 | 115.61835 | 20079 ft | 467 kts | 163° |
| 2026-04-16 04:30 | 29.60802 | 115.63165 | 19606 ft | 464 kts | 163° |
| 2026-04-16 04:30 | 29.57794 | 115.64482 | 19136 ft | 462 kts | 163° |
| 2026-04-16 04:31 | 29.54791 | 115.65794 | 18678 ft | 461 kts | 163° |
| 2026-04-16 04:31 | 29.51796 | 115.67107 | 18223 ft | 459 kts | 163° |
| 2026-04-16 04:31 | 29.48819 | 115.68412 | 17708 ft | 457 kts | 163° |
| 2026-04-16 04:31 | 29.45861 | 115.69705 | 17196 ft | 453 kts | 163° |
| 2026-04-16 04:32 | 29.42924 | 115.70985 | 16682 ft | 449 kts | 163° |
| 2026-04-16 04:32 | 29.40019 | 115.72251 | 16186 ft | 445 kts | 163° |
| 2026-04-16 04:32 | 29.37135 | 115.73507 | 15699 ft | 442 kts | 162° |
| 2026-04-16 04:32 | 29.34277 | 115.74753 | 15222 ft | 438 kts | 162° |
| 2026-04-16 04:33 | 29.31423 | 115.75946 | 14747 ft | 434 kts | 164° |
| 2026-04-16 04:33 | 29.28566 | 115.77016 | 14277 ft | 431 kts | 165° |
| 2026-04-16 04:33 | 29.25705 | 115.78000 | 13810 ft | 428 kts | 166° |
| 2026-04-16 04:33 | 29.22854 | 115.78947 | 13315 ft | 424 kts | 166° |
| 2026-04-16 04:34 | 29.20033 | 115.79882 | 12794 ft | 420 kts | 166° |
| 2026-04-16 04:34 | 29.17238 | 115.80820 | 12298 ft | 416 kts | 166° |
| 2026-04-16 04:34 | 29.14508 | 115.81710 | 11802 ft | 412 kts | 169° |
| 2026-04-16 04:34 | 29.11697 | 115.82163 | 11317 ft | 405 kts | 180° |
| 2026-04-16 04:35 | 29.08903 | 115.82053 | 10840 ft | 399 kts | 189° |
| 2026-04-16 04:35 | 29.06210 | 115.81406 | 10371 ft | 393 kts | 199° |
| 2026-04-16 04:35 | 29.03676 | 115.80297 | 9913 ft | 387 kts | 204° |
| 2026-04-16 04:35 | 29.01220 | 115.79110 | 9406 ft | 380 kts | 204° |
| 2026-04-16 04:36 | 28.98807 | 115.77948 | 8895 ft | 373 kts | 204° |
| 2026-04-16 04:36 | 28.96441 | 115.76814 | 8395 ft | 365 kts | 204° |
| 2026-04-16 04:36 | 28.94162 | 115.75728 | 7997 ft | 341 kts | 204° |
| 2026-04-16 04:36 | 28.92061 | 115.74729 | 7759 ft | 314 kts | 205° |
| 2026-04-16 04:37 | 28.90115 | 115.73800 | 7505 ft | 292 kts | 205° |
| 2026-04-16 04:37 | 28.88306 | 115.72934 | 7261 ft | 272 kts | 205° |
| 2026-04-16 04:37 | 28.86619 | 115.72123 | 7025 ft | 255 kts | 205° |
| 2026-04-16 04:37 | 28.85038 | 115.71364 | 6798 ft | 239 kts | 205° |
| 2026-04-16 04:38 | 28.83527 | 115.70637 | 6565 ft | 233 kts | 206° |
| 2026-04-16 04:38 | 28.82040 | 115.69920 | 6324 ft | 230 kts | 206° |
| 2026-04-16 04:38 | 28.80576 | 115.69214 | 6077 ft | 227 kts | 205° |
| 2026-04-16 04:38 | 28.79144 | 115.68525 | 5940 ft | 219 kts | 205° |
| 2026-04-16 04:39 | 28.77773 | 115.67867 | 5918 ft | 211 kts | 206° |
| 2026-04-16 04:39 | 28.76427 | 115.67219 | 5929 ft | 210 kts | 206° |
| 2026-04-16 04:39 | 28.75079 | 115.66568 | 5928 ft | 212 kts | 206° |
| 2026-04-16 04:39 | 28.73711 | 115.65908 | 5931 ft | 213 kts | 206° |
| 2026-04-16 04:40 | 28.72361 | 115.65259 | 5931 ft | 209 kts | 206° |
| 2026-04-16 04:40 | 28.71034 | 115.64626 | 5929 ft | 205 kts | 206° |
| 2026-04-16 04:40 | 28.69735 | 115.64007 | 5934 ft | 199 kts | 203° |
| 2026-04-16 04:40 | 28.68491 | 115.63418 | 5945 ft | 188 kts | 205° |
| 2026-04-16 04:41 | 28.67264 | 115.62921 | 5925 ft | 189 kts | 193° |
| 2026-04-16 04:41 | 28.65944 | 115.63013 | 5939 ft | 196 kts | 167° |
| 2026-04-16 04:41 | 28.64760 | 115.63826 | 5756 ft | 205 kts | 137° |
| 2026-04-16 04:41 | 28.64017 | 115.65240 | 5555 ft | 213 kts | 115° |
| 2026-04-16 04:42 | 28.63443 | 115.66783 | 5383 ft | 216 kts | 116° |
| 2026-04-16 04:42 | 28.62983 | 115.68416 | 5204 ft | 217 kts | 102° |
| 2026-04-16 04:42 | 28.62923 | 115.70115 | 5034 ft | 214 kts | 85° |
| 2026-04-16 04:42 | 28.63257 | 115.71755 | 4869 ft | 212 kts | 69° |
| 2026-04-16 04:43 | 28.63841 | 115.73297 | 4710 ft | 213 kts | 66° |
| 2026-04-16 04:43 | 28.64428 | 115.74856 | 4531 ft | 215 kts | 67° |
| 2026-04-16 04:43 | 28.65010 | 115.76418 | 4355 ft | 214 kts | 68° |
| 2026-04-16 04:43 | 28.65587 | 115.77962 | 4176 ft | 210 kts | 67° |
| 2026-04-16 04:44 | 28.66174 | 115.79472 | 4020 ft | 206 kts | 60° |
| 2026-04-16 04:44 | 28.67080 | 115.80714 | 3833 ft | 204 kts | 37° |
| 2026-04-16 04:44 | 28.68310 | 115.81483 | 3594 ft | 201 kts | 22° |
| 2026-04-16 04:44 | 28.69609 | 115.82106 | 3359 ft | 205 kts | 22° |
| 2026-04-16 04:45 | 28.70938 | 115.82745 | 3084 ft | 208 kts | 22° |
| 2026-04-16 04:45 | 28.72242 | 115.83374 | 2810 ft | 199 kts | 22° |
| 2026-04-16 04:45 | 28.73488 | 115.83976 | 2547 ft | 189 kts | 22° |
| 2026-04-16 04:45 | 28.74659 | 115.84542 | 2324 ft | 176 kts | 22° |
| 2026-04-16 04:46 | 28.75733 | 115.85061 | 2105 ft | 158 kts | 22° |
| 2026-04-16 04:46 | 28.76709 | 115.85533 | 1879 ft | 149 kts | 22° |
| 2026-04-16 04:46 | 28.77651 | 115.85988 | 1699 ft | 145 kts | 22° |
| 2026-04-16 04:46 | 28.78573 | 115.86434 | 1503 ft | 144 kts | 22° |
| 2026-04-16 04:47 | 28.79492 | 115.86878 | 1323 ft | 143 kts | 23° |
| 2026-04-16 04:47 | 28.80406 | 115.87320 | 1133 ft | 142 kts | 22° |
| 2026-04-16 04:47 | 28.81314 | 115.87759 | 944 ft | 142 kts | 22° |
| 2026-04-16 04:47 | 28.82207 | 115.88191 | 770 ft | 140 kts | 23° |
| 2026-04-16 04:48 | 28.83114 | 115.88630 | 588 ft | 139 kts | 23° |
| 2026-04-16 04:48 | 28.83992 | 115.89055 | 403 ft | 140 kts | 22° |
| 2026-04-16 04:48 | 28.84883 | 115.89490 | 239 ft | 138 kts | 22° |
| 2026-04-16 04:48 | 28.85734 | 115.89897 | 166 ft | 118 kts | 24° |
| 2026-04-16 04:49 | 28.86320 | 115.90183 | 165 ft | 67 kts | 22° |
| 2026-04-16 04:49 | 28.86628 | 115.90331 | 167 ft | 40 kts | 23° |
| 2026-04-16 04:49 | 28.86779 | 115.90455 | 168 ft | 23 kts | 49° |
| 2026-04-16 04:49 | 28.86854 | 115.90571 | 166 ft | 12 kts | 63° |
| 2026-04-16 04:50 | 28.86832 | 115.90627 | 166 ft | 6 kts | 159° |
| 2026-04-16 04:50 | 28.86804 | 115.90625 | 166 ft | 2 kts | 186° |
| 2026-04-16 04:50 | 28.86771 | 115.90631 | 166 ft | 10 kts | 158° |
| 2026-04-16 04:50 | 28.86730 | 115.90705 | 166 ft | 9 kts | 114° |
| 2026-04-16 04:51 | 28.86712 | 115.90751 | 166 ft | 5 kts | 114° |
| 2026-04-16 04:51 | 28.86692 | 115.90806 | 166 ft | 8 kts | 111° |
| 2026-04-16 04:51 | 28.86669 | 115.90847 | 166 ft | 7 kts | 135° |
| 2026-04-16 04:51 | 28.86597 | 115.90870 | 166 ft | 9 kts | 178° |
| 2026-04-16 04:52 | 28.86561 | 115.90893 | 166 ft | 2 kts | 112° |
| 2026-04-16 04:52 | 28.86561 | 115.90896 | 166 ft | 1 kts | 102° |
| 2026-04-16 04:52 | 28.86561 | 115.90906 | 166 ft | 2 kts | 90° |
| 2026-04-16 04:52 | 28.86562 | 115.90921 | 166 ft | 4 kts | 87° |
| 2026-04-16 04:53 | 28.86563 | 115.90940 | 166 ft | 3 kts | 85° |
| 2026-04-16 04:53 | 28.86564 | 115.90959 | 168 ft | 2 kts | 87° |
| 2026-04-16 04:56 | 28.86564 | 115.90960 | 166 ft | 0 kts | 87° |